Temperance, MI

10:11 AM EDT on October 31, 2014 (GMT -0400)
Bedford | Change Station
CLOSE
Current Station
Personal Weather Station
Location: Temperance, MI
Elevation: 656 ft
Nearby Weather Stations

Elev 656 ft 41.78 °N, 83.59 °W | Updated 1 second ago

Rain
Rain
43.5 °F
Feels Like 44 °F
N
0.4
Wind Variable Wind from West
Gusts 2.5 mph

Today
High -- | Low -- °F
--% Chance of Precip.
Yesterday
High -- | Low -- °F
Precip. -- in
8:05 AM 6:29 PM
First Quarter, 55% visible
Pressure 29.90 in
Visibility 5.0 miles
Clouds Overcast 2200 ft
Windchill 44 °F
Dew Point 41 °F
Humidity 90%
Rainfall 0.05 in
Snow Depth Not available.
UV 0 out of 12
Pollen .10 out of 12
Air Quality Not available.
Flu Activity Not available.
METAR KDUH 311355Z AUTO 23004KT 5SM -RA OVC022 06/04 A2990 RMK AO2

More Conditions Fewer Conditions

Pressure 29.90 in
Visibility 5.0 miles
Clouds Overcast 2200 ft
Windchill 44 °F
Dew Point 41 °F
Humidity 90%
Rainfall 0.05 in
Snow Depth Not available.
UV 0 out of 12
Pollen .10 out of 12
Air Quality Not available.
Flu Activity Not available.
METAR KDUH 311355Z AUTO 23004KT 5SM -RA OVC022 06/04 A2990 RMK AO2

More Conditions Fewer Conditions

10-Day Weather Forecast

Almanac

Astronomy

Oct. 31, 2014 Rise Set
Actual Time
Civil Twilight
Nautical Twilight
Astronomical Twilight
Moon
Length of Visible Light
Length of Day
Tomorrow will be .
, % of the Moon is Illuminated

Today's Extremes

State Highs State Lows

Community

WunderPhotos

Upload Photos

1,766,617 photos uploaded!

WunderBlogs® & News

Nearby

Air Quality

  Air Quality AQ Index Pollutant
Not available.

Snow Depth

Station Depth Elevation

Earthquake Activity

City Distance Mag. Time & Date
Minimum magnitude displayed is 2.5.

Coastal Water Temperatures

Place Temperature

Nearby Weather Stations